createdAt,value
2023-01-12T00:01:22.233Z,41.97
2023-01-12T00:04:14.238Z,43.27
2023-01-12T00:07:07.722Z,49.80
2023-01-12T00:09:56.741Z,43.17
2023-01-12T00:12:45.459Z,47.97
2023-01-12T00:15:58.548Z,46.30
2023-01-12T00:18:47.998Z,44.77
2023-01-12T00:21:43.715Z,44.23
2023-01-12T00:24:36.004Z,42.17
2023-01-12T00:27:24.715Z,43.70
2023-01-12T00:30:14.573Z,41.17
2023-01-12T00:33:03.984Z,45.00
2023-01-12T00:35:56.015Z,39.50
2023-01-12T00:38:46.200Z,42.70
2023-01-12T00:41:55.990Z,43.50
2023-01-12T00:45:06.873Z,40.93
2023-01-12T00:48:03.192Z,42.63
2023-01-12T00:50:56.279Z,41.00
2023-01-12T00:53:45.599Z,41.67
2023-01-12T00:56:34.540Z,41.63
2023-01-12T00:59:24.707Z,39.70
2023-01-12T01:02:14.108Z,39.73
2023-01-12T01:05:02.973Z,44.67
2023-01-12T01:07:51.752Z,41.97
2023-01-12T01:10:40.584Z,37.03
2023-01-12T01:13:29.445Z,41.63
2023-01-12T01:16:20.116Z,41.20
2023-01-12T01:19:08.925Z,39.70
2023-01-12T01:21:57.907Z,39.23
2023-01-12T01:24:46.679Z,41.33
2023-01-12T01:27:35.676Z,43.93
2023-01-12T01:30:24.480Z,42.17
2023-01-12T01:33:15.601Z,41.73
2023-01-12T01:36:04.895Z,40.93
2023-01-12T01:38:53.779Z,40.37
2023-01-12T01:41:43.655Z,41.17
2023-01-12T01:45:00.802Z,42.57
2023-01-12T01:47:52.760Z,43.27
2023-01-12T01:50:48.566Z,42.50
2023-01-12T01:53:41.230Z,43.30
2023-01-12T01:56:33.829Z,42.70
2023-01-12T01:59:25.911Z,41.10
2023-01-12T02:02:15.941Z,40.10
2023-01-12T02:05:05.728Z,40.53
2023-01-12T02:08:01.699Z,41.43
2023-01-12T02:10:51.359Z,41.00
2023-01-12T02:13:57.726Z,43.07
2023-01-12T02:17:01.538Z,44.40
2023-01-12T02:20:44.164Z,43.47
2023-01-12T02:24:08.617Z,41.07
2023-01-12T02:27:21.787Z,41.37
2023-01-12T02:30:48.027Z,37.83
2023-01-12T02:33:50.445Z,41.40
2023-01-12T02:36:45.237Z,38.33
2023-01-12T02:39:43.184Z,41.33
2023-01-12T02:42:44.194Z,42.70
2023-01-12T02:45:43.000Z,37.47
2023-01-12T02:48:36.860Z,37.60
2023-01-12T02:51:33.490Z,40.73
2023-01-12T02:54:24.277Z,38.10
2023-01-12T02:57:13.282Z,39.33
2023-01-12T03:00:04.289Z,40.77
2023-01-12T03:02:53.285Z,36.13
2023-01-12T03:05:48.640Z,39.03
2023-01-12T03:08:40.647Z,39.87
2023-01-12T03:11:30.686Z,34.30
2023-01-12T03:14:19.379Z,36.23
2023-01-12T03:17:12.429Z,37.93
2023-01-12T03:20:07.436Z,35.20
2023-01-12T03:23:02.908Z,37.57
2023-01-12T03:25:56.445Z,35.37
2023-01-12T03:28:49.511Z,34.77
2023-01-12T03:31:38.919Z,34.97
2023-01-12T03:34:28.104Z,36.63
2023-01-12T03:37:26.203Z,39.43
2023-01-12T03:40:20.092Z,38.10
2023-01-12T03:43:16.532Z,37.47
2023-01-12T03:46:12.771Z,34.27
2023-01-12T03:49:06.240Z,35.13
2023-01-12T03:51:59.110Z,34.20
2023-01-12T03:54:49.658Z,34.13
2023-01-12T03:57:39.466Z,32.63
2023-01-12T04:00:31.598Z,36.43
2023-01-12T04:03:20.365Z,32.87
2023-01-12T04:06:09.445Z,33.13
2023-01-12T04:08:58.190Z,34.70
2023-01-12T04:12:04.730Z,32.17
2023-01-12T04:14:53.638Z,38.50
2023-01-12T04:17:45.740Z,32.33
2023-01-12T04:20:34.603Z,37.53
2023-01-12T04:23:22.525Z,33.53
2023-01-12T04:26:11.342Z,37.10
2023-01-12T04:29:03.334Z,35.53
2023-01-12T04:31:52.227Z,33.70
2023-01-12T04:34:42.332Z,34.20
2023-01-12T04:37:33.333Z,33.43
2023-01-12T04:40:22.167Z,34.53
2023-01-12T04:43:12.117Z,34.43
2023-01-12T04:46:05.545Z,34.20
2023-01-12T04:48:54.385Z,30.57
2023-01-12T04:51:44.683Z,30.93
2023-01-12T04:54:33.503Z,29.93
2023-01-12T04:57:22.293Z,32.87
2023-01-12T05:00:12.297Z,30.53
2023-01-12T05:03:02.448Z,30.73
2023-01-12T05:05:51.483Z,30.53
2023-01-12T05:08:59.629Z,27.93
2023-01-12T05:11:48.560Z,32.80
2023-01-12T05:14:37.389Z,31.60
2023-01-12T05:17:26.214Z,27.67
2023-01-12T05:20:15.335Z,29.90
2023-01-12T05:23:04.047Z,30.93
2023-01-12T05:25:54.233Z,30.37
2023-01-12T05:28:43.195Z,29.27
2023-01-12T05:31:32.141Z,31.13
2023-01-12T05:34:21.323Z,27.00
2023-01-12T05:37:10.048Z,27.27
2023-01-12T05:39:58.794Z,29.37
2023-01-12T05:43:08.957Z,28.43
2023-01-12T05:45:57.730Z,26.90
2023-01-12T05:48:46.535Z,28.67
2023-01-12T05:51:35.243Z,27.33
2023-01-12T05:54:24.218Z,30.80
2023-01-12T05:57:12.980Z,29.57
2023-01-12T06:00:03.679Z,26.67
2023-01-12T06:03:01.088Z,30.43
2023-01-12T06:05:55.989Z,28.07
2023-01-12T06:08:45.743Z,30.50
2023-01-12T06:11:52.185Z,35.37
2023-01-12T06:14:41.107Z,29.60
2023-01-12T06:17:34.352Z,28.97
2023-01-12T06:20:23.984Z,28.90
2023-01-12T06:23:13.810Z,29.93
2023-01-12T06:26:04.270Z,27.57
2023-01-12T06:28:54.348Z,28.13
2023-01-12T06:31:44.188Z,28.97
2023-01-12T06:34:36.611Z,28.67
2023-01-12T06:37:25.619Z,31.40
2023-01-12T06:40:15.276Z,29.50
2023-01-12T06:43:04.307Z,31.40
2023-01-12T06:45:55.159Z,33.17
2023-01-12T06:48:43.944Z,32.90
2023-01-12T06:51:34.500Z,31.93
2023-01-12T06:54:23.549Z,31.10
2023-01-12T06:57:12.831Z,31.77
2023-01-12T07:00:01.800Z,36.80
2023-01-12T07:02:52.018Z,35.23
2023-01-12T07:05:40.705Z,32.77
2023-01-12T07:08:31.067Z,35.57
2023-01-12T07:11:19.743Z,37.37
2023-01-12T07:14:09.306Z,35.93
2023-01-12T07:16:58.189Z,37.73
2023-01-12T07:19:47.001Z,31.43
2023-01-12T07:22:35.732Z,34.53
2023-01-12T07:25:25.846Z,32.33
2023-01-12T07:28:14.707Z,32.90
2023-01-12T07:31:04.757Z,32.40
2023-01-12T07:33:54.160Z,36.53
2023-01-12T07:36:43.214Z,34.80
2023-01-12T07:39:33.190Z,35.50
2023-01-12T07:42:33.738Z,36.33
2023-01-12T07:45:24.041Z,33.57
2023-01-12T07:48:12.772Z,37.40
2023-01-12T07:51:01.550Z,36.20
2023-01-12T07:53:50.797Z,32.27
2023-01-12T07:56:39.754Z,34.23
2023-01-12T07:59:29.928Z,35.17
2023-01-12T08:02:19.467Z,34.13
2023-01-12T08:05:08.840Z,32.27
2023-01-12T08:07:57.595Z,32.97
2023-01-12T08:10:50.162Z,37.47
2023-01-12T08:13:40.943Z,33.43
2023-01-12T08:16:36.309Z,33.73
2023-01-12T08:19:30.576Z,33.93
2023-01-12T08:22:25.288Z,33.43
2023-01-12T08:25:17.772Z,38.67
2023-01-12T08:28:09.902Z,33.50
2023-01-12T08:30:58.926Z,34.73
2023-01-12T08:33:49.480Z,34.50
2023-01-12T08:36:40.102Z,33.70
2023-01-12T08:39:29.602Z,32.00
2023-01-12T08:42:18.760Z,34.17
2023-01-12T08:45:09.392Z,32.70
2023-01-12T08:47:58.224Z,34.93
2023-01-12T08:50:48.549Z,33.00
2023-01-12T08:53:37.271Z,32.97
2023-01-12T08:56:26.065Z,34.13
2023-01-12T08:59:16.193Z,31.37
2023-01-12T09:02:05.412Z,31.90
2023-01-12T09:04:54.504Z,27.63
2023-01-12T09:07:45.603Z,31.80
2023-01-12T09:10:34.834Z,28.93
2023-01-12T09:13:23.566Z,29.53
2023-01-12T09:16:14.817Z,27.97
2023-01-12T09:19:03.946Z,28.10
2023-01-12T09:21:52.704Z,29.07
2023-01-12T09:24:43.293Z,30.67
2023-01-12T09:27:32.059Z,28.47
2023-01-12T09:30:20.947Z,27.45
2023-01-12T09:33:09.796Z,26.60
2023-01-12T09:36:02.679Z,29.50
2023-01-12T09:38:51.761Z,29.27
2023-01-12T09:42:14.696Z,24.25
2023-01-12T09:45:25.480Z,23.90
2023-01-12T09:48:15.196Z,23.93
2023-01-12T09:51:10.477Z,23.65
2023-01-12T09:53:59.405Z,23.10
2023-01-12T09:56:58.317Z,23.92
2023-01-12T09:59:59.533Z,23.97
2023-01-12T10:02:52.437Z,25.75
2023-01-12T10:05:46.166Z,21.47
2023-01-12T10:08:38.436Z,21.80
2023-01-12T10:11:33.422Z,22.27
2023-01-12T10:14:38.896Z,24.13
2023-01-12T10:17:45.976Z,23.10
2023-01-12T10:20:40.957Z,21.00
2023-01-12T10:23:30.510Z,24.00
2023-01-12T10:26:23.715Z,25.70
2023-01-12T10:29:13.524Z,24.13
2023-01-12T10:32:04.020Z,21.90
2023-01-12T10:34:53.622Z,18.88
2023-01-12T10:37:49.787Z,25.58
2023-01-12T10:40:38.690Z,21.92
2023-01-12T10:43:32.467Z,19.70
2023-01-12T10:46:23.662Z,23.70
2023-01-12T10:49:22.127Z,22.13
2023-01-12T10:52:21.576Z,22.57
2023-01-12T10:55:20.661Z,22.67
2023-01-12T10:58:21.484Z,20.65
2023-01-12T11:01:14.640Z,23.03
2023-01-12T11:04:06.994Z,19.00
2023-01-12T11:07:05.373Z,20.87
2023-01-12T11:09:55.365Z,25.85
2023-01-12T11:12:44.212Z,19.80
2023-01-12T11:15:39.103Z,19.38
2023-01-12T11:18:38.909Z,23.63
2023-01-12T11:21:32.367Z,17.27
2023-01-12T11:24:43.283Z,18.92
2023-01-12T11:27:36.973Z,16.93
2023-01-12T11:30:32.449Z,19.75
2023-01-12T11:33:26.249Z,16.10
2023-01-12T11:36:20.533Z,20.95
2023-01-12T11:39:14.794Z,20.95
2023-01-12T11:42:29.045Z,16.77
2023-01-12T11:45:24.500Z,20.25
2023-01-12T11:48:23.541Z,16.48
2023-01-12T11:51:13.875Z,16.23
2023-01-12T11:54:02.989Z,19.63
2023-01-12T11:57:14.452Z,17.63
2023-01-12T12:00:17.268Z,14.63
2023-01-12T12:03:28.507Z,18.45
2023-01-12T12:06:51.585Z,14.18
2023-01-12T12:10:01.392Z,13.55
2023-01-12T12:13:14.495Z,15.18
2023-01-12T12:16:21.647Z,15.07
2023-01-12T12:19:27.473Z,15.43
2023-01-12T12:22:28.290Z,17.17
2023-01-12T12:25:29.086Z,18.55
2023-01-12T12:28:43.575Z,14.07
2023-01-12T12:31:49.873Z,12.73
2023-01-12T12:34:55.501Z,15.82
2023-01-12T12:37:54.597Z,14.95
2023-01-12T12:41:13.550Z,15.68
2023-01-12T12:44:32.899Z,16.73
2023-01-12T12:47:42.333Z,16.75
2023-01-12T12:50:33.603Z,10.80
2023-01-12T12:53:27.509Z,16.77
2023-01-12T12:56:19.102Z,14.13
2023-01-12T12:59:52.482Z,13.25
2023-01-12T13:02:53.548Z,13.50
2023-01-12T13:05:47.483Z,16.25
2023-01-12T13:08:37.340Z,12.50
2023-01-12T13:11:53.633Z,18.50
2023-01-12T13:14:44.740Z,58.15
2023-01-12T13:17:45.407Z,14.00
2023-01-12T13:20:59.904Z,13.95
2023-01-12T13:23:52.752Z,13.38
2023-01-12T13:26:45.659Z,13.95
2023-01-12T13:29:48.504Z,13.93
2023-01-12T13:32:50.799Z,15.98
2023-01-12T13:36:05.217Z,14.68
2023-01-12T13:39:04.087Z,13.77
2023-01-12T13:42:11.320Z,16.20
2023-01-12T13:45:01.635Z,15.83
2023-01-12T13:47:52.918Z,12.65
2023-01-12T13:50:49.041Z,11.63
2023-01-12T13:53:37.891Z,13.95
2023-01-12T13:56:27.213Z,15.02
2023-01-12T13:59:19.267Z,13.63
2023-01-12T14:02:19.436Z,12.23
2023-01-12T14:05:26.344Z,12.73
2023-01-12T14:08:51.199Z,15.80
2023-01-12T14:12:03.154Z,13.15
2023-01-12T14:15:37.247Z,11.05
2023-01-12T14:18:29.699Z,16.15
2023-01-12T14:21:24.371Z,17.08
2023-01-12T14:24:18.623Z,12.88
2023-01-12T14:27:18.684Z,12.57
2023-01-12T14:30:13.411Z,11.68
2023-01-12T14:33:02.482Z,10.27
2023-01-12T14:35:56.159Z,12.75
2023-01-12T14:38:45.541Z,17.35
2023-01-12T14:41:52.017Z,8.95
2023-01-12T14:45:07.092Z,14.70
2023-01-12T14:47:55.879Z,11.90
2023-01-12T14:51:04.530Z,12.00
2023-01-12T14:54:00.037Z,11.05
2023-01-12T14:56:56.589Z,10.02
2023-01-12T14:59:47.289Z,13.05
2023-01-12T15:02:39.697Z,15.35
2023-01-12T15:05:30.537Z,13.23
2023-01-12T15:08:27.243Z,11.80
2023-01-12T15:11:16.358Z,15.10
2023-01-12T15:14:08.101Z,11.65
2023-01-12T15:17:15.415Z,15.65
2023-01-12T15:20:23.623Z,16.08
2023-01-12T15:23:30.694Z,16.10
2023-01-12T15:26:21.162Z,14.68
2023-01-12T15:29:10.279Z,13.60
2023-01-12T15:31:59.203Z,14.95
2023-01-12T15:34:48.510Z,11.43
2023-01-12T15:37:37.883Z,17.10
2023-01-12T15:40:28.366Z,13.15
2023-01-12T15:43:18.965Z,16.63
2023-01-12T15:46:07.770Z,15.43
2023-01-12T15:48:56.869Z,15.20
2023-01-12T15:51:49.320Z,15.32
2023-01-12T15:54:38.042Z,16.98
2023-01-12T15:57:26.873Z,18.67
2023-01-12T16:00:19.199Z,14.82
2023-01-12T16:03:23.950Z,14.43
2023-01-12T16:06:20.694Z,24.55
2023-01-12T16:09:09.729Z,17.90
2023-01-12T16:11:58.532Z,18.23
2023-01-12T16:14:47.541Z,19.50
2023-01-12T16:17:37.725Z,15.90
2023-01-12T16:20:26.635Z,16.27
2023-01-12T16:23:15.420Z,17.90
2023-01-12T16:26:04.105Z,17.83
2023-01-12T16:28:52.927Z,16.57
2023-01-12T16:31:41.833Z,21.63
2023-01-12T16:34:33.231Z,19.80
2023-01-12T16:37:23.275Z,20.33
2023-01-12T16:40:13.500Z,22.40
2023-01-12T16:43:02.593Z,20.00
2023-01-12T16:45:52.195Z,22.50
2023-01-12T16:48:42.246Z,23.48
2023-01-12T16:51:34.638Z,23.73
2023-01-12T16:54:23.463Z,21.03
2023-01-12T16:57:12.832Z,22.57
2023-01-12T17:00:01.915Z,24.27
2023-01-12T17:02:50.873Z,23.27
2023-01-12T17:05:41.251Z,24.87
2023-01-12T17:08:31.661Z,24.00
2023-01-12T17:11:23.912Z,27.63
2023-01-12T17:14:27.636Z,24.90
2023-01-12T17:17:16.943Z,26.27
2023-01-12T17:20:06.677Z,22.90
2023-01-12T17:22:55.788Z,31.77
2023-01-12T17:25:46.093Z,27.07
2023-01-12T17:28:36.076Z,28.63
2023-01-12T17:31:25.075Z,28.13
2023-01-12T17:34:15.308Z,27.70
2023-01-12T17:37:07.890Z,26.10
2023-01-12T17:39:56.695Z,28.57
2023-01-12T17:43:07.698Z,28.53
2023-01-12T17:45:57.024Z,28.47
2023-01-12T17:48:45.924Z,28.47
2023-01-12T17:51:35.081Z,28.57
2023-01-12T17:54:24.838Z,28.27
2023-01-12T17:57:14.098Z,25.70
2023-01-12T18:00:05.931Z,26.00
2023-01-12T18:03:02.910Z,28.27
2023-01-12T18:06:02.858Z,26.67
2023-01-12T18:08:56.576Z,30.00
2023-01-12T18:11:45.589Z,26.20
2023-01-12T18:14:34.486Z,27.60
2023-01-12T18:17:25.443Z,26.63
2023-01-12T18:20:14.247Z,26.20
2023-01-12T18:23:03.054Z,29.40
2023-01-12T18:25:52.027Z,24.40
2023-01-12T18:28:40.761Z,26.20
2023-01-12T18:31:32.093Z,25.90
2023-01-12T18:34:22.846Z,25.77
2023-01-12T18:37:13.680Z,24.33
2023-01-12T18:40:03.512Z,26.77
2023-01-12T18:42:51.555Z,24.30
2023-01-12T18:45:40.464Z,22.77
2023-01-12T18:48:28.117Z,26.37
2023-01-12T18:51:35.786Z,23.93
2023-01-12T18:54:24.615Z,26.83
2023-01-12T18:57:13.974Z,26.60
2023-01-12T19:00:14.618Z,25.70
2023-01-12T19:03:04.485Z,24.10
2023-01-12T19:06:00.376Z,24.97
2023-01-12T19:09:09.680Z,27.03
2023-01-12T19:11:59.074Z,26.50
2023-01-12T19:15:05.261Z,20.20
2023-01-12T19:17:53.975Z,23.57
2023-01-12T19:20:42.811Z,22.13
2023-01-12T19:23:49.006Z,23.03
2023-01-12T19:26:57.104Z,22.30
2023-01-12T19:29:47.895Z,20.70
2023-01-12T19:32:36.783Z,20.17
2023-01-12T19:35:25.827Z,20.87
2023-01-12T19:38:16.095Z,20.90
2023-01-12T19:41:12.291Z,23.80
2023-01-12T19:44:05.603Z,18.47
2023-01-12T19:46:54.430Z,18.00
2023-01-12T19:49:43.585Z,20.50
2023-01-12T19:52:33.127Z,20.73
2023-01-12T19:55:21.942Z,18.53
2023-01-12T19:58:11.449Z,23.47
2023-01-12T20:01:01.772Z,22.97
2023-01-12T20:03:52.120Z,23.00
2023-01-12T20:06:40.989Z,20.87
2023-01-12T20:09:29.849Z,21.97
2023-01-12T20:12:19.269Z,21.37
2023-01-12T20:15:09.318Z,23.33
2023-01-12T20:18:01.453Z,18.47
2023-01-12T20:20:50.400Z,20.37
2023-01-12T20:23:39.263Z,21.47
2023-01-12T20:26:28.279Z,19.13
2023-01-12T20:29:17.771Z,21.10
2023-01-12T20:32:08.534Z,20.63
2023-01-12T20:34:59.526Z,21.40
2023-01-12T20:37:48.482Z,20.53
2023-01-12T20:40:39.933Z,22.60
2023-01-12T20:43:28.928Z,20.40
2023-01-12T20:46:18.110Z,20.57
2023-01-12T20:49:06.951Z,24.63
2023-01-12T20:52:00.436Z,21.20
2023-01-12T20:54:49.381Z,19.10
2023-01-12T20:57:39.918Z,20.73
2023-01-12T21:00:32.036Z,19.80
2023-01-12T21:03:21.516Z,23.07
2023-01-12T21:06:11.780Z,18.53
2023-01-12T21:09:02.487Z,19.40
2023-01-12T21:11:51.553Z,21.80
2023-01-12T21:14:40.697Z,19.60
2023-01-12T21:17:31.322Z,20.17
2023-01-12T21:20:20.744Z,22.23
2023-01-12T21:23:09.621Z,20.87
2023-01-12T21:26:00.088Z,22.50
2023-01-12T21:28:49.114Z,20.40
2023-01-12T21:31:37.969Z,22.00
2023-01-12T21:34:26.783Z,20.77
2023-01-12T21:37:15.761Z,18.87
2023-01-12T21:40:05.525Z,16.43
2023-01-12T21:43:12.512Z,20.60
2023-01-12T21:46:07.042Z,18.07
2023-01-12T21:48:56.458Z,17.93
2023-01-12T21:51:45.652Z,18.27
2023-01-12T21:54:34.604Z,15.40
2023-01-12T21:57:24.055Z,18.97
2023-01-12T22:00:15.878Z,18.60
2023-01-12T22:03:05.412Z,18.50
2023-01-12T22:05:54.536Z,17.67
2023-01-12T22:08:43.745Z,17.43
2023-01-12T22:11:33.289Z,17.20
2023-01-12T22:14:22.305Z,17.07
2023-01-12T22:17:13.016Z,18.97
2023-01-12T22:20:02.169Z,16.43
2023-01-12T22:22:51.503Z,20.03
2023-01-12T22:25:40.640Z,15.80
2023-01-12T22:28:29.970Z,18.33
2023-01-12T22:31:21.964Z,19.97
2023-01-12T22:34:13.043Z,16.00
2023-01-12T22:37:02.384Z,19.50
2023-01-12T22:39:51.418Z,20.70
2023-01-12T22:42:58.282Z,23.55
2023-01-12T22:45:50.762Z,15.13
2023-01-12T22:48:39.919Z,15.40
2023-01-12T22:51:31.663Z,15.23
2023-01-12T22:54:20.670Z,16.13
2023-01-12T22:57:10.335Z,17.33
2023-01-12T22:59:59.440Z,15.50
2023-01-12T23:03:04.203Z,18.47
2023-01-12T23:05:56.504Z,18.15
2023-01-12T23:08:47.289Z,18.03
2023-01-12T23:11:36.465Z,14.87
2023-01-12T23:14:25.835Z,17.03
2023-01-12T23:17:14.770Z,16.35
2023-01-12T23:20:03.896Z,21.07
2023-01-12T23:22:55.844Z,18.97
2023-01-12T23:25:46.195Z,18.33
2023-01-12T23:28:39.256Z,18.80
2023-01-12T23:31:33.365Z,23.77
2023-01-12T23:34:22.241Z,18.83
2023-01-12T23:37:10.984Z,16.47
2023-01-12T23:39:59.828Z,18.27
2023-01-12T23:42:50.310Z,17.30
2023-01-12T23:45:39.044Z,16.67
2023-01-12T23:48:27.741Z,22.43
2023-01-12T23:51:16.951Z,18.58
2023-01-12T23:54:07.702Z,18.60
2023-01-12T23:56:56.633Z,15.03
2023-01-12T23:59:46.811Z,15.93
